Terminal Aerodrome Forecast
Issued by NWS

Home | Current Version | Previous Version | Text Only | Print | Product List | Glossary On
Versions: 1 2 3 4 5 6 7 8 9 10 11 12 13 14 15 16 17 18 19 20 21 22 23 24 25 26 27 28 29 30 31 32 33 34 35 36 37
000
FTAK31 PAFA 250014 AAA
TAFAGA
TAF AMD
PAGA 250014Z 2500/2524 08005KT 3SM -SN BR SCT010 OVC025
      TEMPO 2500/2504 1SM -SN OVC015
     FM250400 09006KT 2SM -SN OVC015
     FM251800 09006KT 5SM -SN BR SCT015 BKN025=

USA.gov is the U.S. government's official web portal to all federal, state and local government web resources and services.